Time;durP1;ratioP1;P1;durP2;ratioP2;P2;SDS_P1;SDS_P2;PMS_P1;PMS_P2;Temp;Humidity;BMP_temperature;BMP_pressure;BME280_temperature;BME280_humidity;BME280_pressure;Samples;Min_cycle;Max_cycle;Signal;HPM_P1;HPM_P2
2021/06/03 03:05:56;;;;;;;;;14.25;13.75;;;;;15.78;87.28;100559.41;5051244;28;9123;-75
2021/06/03 03:08:52;;;;;;;;;19.33;18.00;;;;;16.19;87.14;100579.31;5034005;28;8894;-76
2021/06/03 03:12:05;;;;;;;;;5.00;5.00;;;;;16.08;86.53;100576.31;5034654;28;9065;-76
2021/06/03 03:15:51;;;;;;;;;8.00;8.00;;;;;16.26;85.90;100573.06;5030245;28;8850;-75
2021/06/03 03:19:46;;;;;;;;;5.00;5.00;;;;;16.04;85.65;100566.28;4896982;29;8895;-75
2021/06/03 03:23:43;;;;;;;;;14.25;14.25;;;;;16.15;85.77;100570.06;4974473;28;8830;-76
2021/06/03 03:26:42;;;;;;;;;14.75;14.75;;;;;16.25;85.72;100575.00;4992927;28;8860;-76
2021/06/03 03:30:08;;;;;;;;;29.33;28.00;;;;;16.06;84.91;100581.47;5021069;28;8849;-75
2021/06/03 03:33:30;;;;;;;;;16.33;16.33;;;;;16.16;85.79;100582.81;5033720;28;9990;-76
2021/06/03 03:40:57;;;;;;;;;15.25;13.75;;;;;16.29;85.67;100580.66;5030787;28;8863;-76
2021/06/03 08:09:04;;;;;;;;;18.50;18.50;;;;;18.22;78.01;100721.28;5032866;28;8837;-76
2021/06/03 08:11:59;;;;;;;;;18.50;18.50;;;;;18.16;75.97;100723.59;5024378;28;9604;-76
2021/06/03 08:14:57;;;;;;;;;17.75;17.00;;;;;18.26;76.25;100724.94;4995263;28;8866;-74
2021/06/03 08:17:29;;;;;;;;;20.50;20.50;;;;;18.27;77.68;100720.94;4997027;28;8864;-75
2021/06/03 08:20:11;;;;;;;;;14.25;13.75;;;;;18.31;74.96;100730.97;4996469;28;8856;-75
2021/06/03 08:22:59;;;;;;;;;12.25;12.25;;;;;18.24;76.00;100728.09;5033352;28;8857;-74
2021/06/03 08:25:27;;;;;;;;;15.50;15.50;;;;;18.28;75.83;100728.16;5033308;28;8907;-75
2021/06/03 08:28:18;;;;;;;;;12.50;11.75;;;;;18.31;74.88;100738.56;5033370;28;8846;-74
2021/06/03 08:31:33;;;;;;;;;12.00;12.00;;;;;18.31;75.64;100741.38;5012360;28;8879;-75
2021/06/03 08:34:42;;;;;;;;;12.00;12.00;;;;;18.50;76.49;100743.19;5016690;28;8832;-74
2021/06/03 08:37:51;;;;;;;;;13.00;13.00;;;;;18.51;74.82;100745.59;5040896;28;9586;-75
2021/06/03 08:40:50;;;;;;;;;15.50;15.50;;;;;18.58;76.34;100745.69;5052446;28;8859;-75
2021/06/03 08:43:21;;;;;;;;;12.50;10.75;;;;;18.52;73.41;100744.41;5053513;28;8844;-75
2021/06/03 08:46:17;;;;;;;;;13.50;13.50;;;;;18.63;72.53;100752.91;5040605;28;8857;-74
2021/06/03 08:49:28;;;;;;;;;10.25;10.25;;;;;18.61;73.70;100750.50;5024882;28;8846;-74
2021/06/03 08:52:31;;;;;;;;;20.50;20.50;;;;;18.60;76.11;100754.50;5009781;28;8846;-74
2021/06/03 08:59:38;;;;;;;;;13.75;13.75;;;;;18.35;72.68;100756.22;4991018;28;8839;-77
2021/06/03 09:02:34;;;;;;;;;15.25;15.25;;;;;18.52;73.53;100760.41;5004706;28;8879;-74
2021/06/03 09:05:35;;;;;;;;;15.75;15.75;;;;;18.14;74.02;100767.97;5033583;28;8861;-74
2021/06/03 09:08:31;;;;;;;;;14.00;14.00;;;;;17.88;75.43;100766.03;5049765;28;8882;-74
2021/06/03 09:11:30;;;;;;;;;15.00;15.00;;;;;18.21;75.76;100767.25;5051288;28;8838;-75
2021/06/03 09:14:04;;;;;;;;;13.25;13.25;;;;;18.25;76.10;100773.72;5064744;28;8874;-75
2021/06/03 09:16:34;;;;;;;;;10.25;10.25;;;;;17.95;76.66;100771.72;5049489;28;8828;-74
2021/06/03 09:19:13;;;;;;;;;12.00;12.00;;;;;18.04;76.68;100769.44;5033033;28;9621;-74
2021/06/03 09:22:03;;;;;;;;;12.75;12.75;;;;;18.25;76.90;100782.91;5036013;28;8884;-74
2021/06/03 09:24:32;;;;;;;;;10.75;10.75;;;;;17.93;75.71;100785.25;5015221;28;8860;-74
2021/06/03 09:27:29;;;;;;;;;10.75;10.75;;;;;17.98;73.92;100796.13;5070439;28;8846;-75
2021/06/03 09:30:24;;;;;;;;;11.50;11.50;;;;;18.09;73.76;100793.47;5072297;28;8841;-74
2021/06/03 09:33:33;;;;;;;;;7.50;7.50;;;;;18.38;73.75;100788.25;5034018;28;8834;-74
2021/06/03 09:36:42;;;;;;;;;9.75;9.75;;;;;18.27;72.68;100796.53;5031696;28;8818;-74
2021/06/03 09:39:45;;;;;;;;;9.25;9.00;;;;;18.27;73.06;100802.13;5031595;28;9055;-74
2021/06/03 09:42:41;;;;;;;;;10.50;10.50;;;;;18.23;73.46;100795.66;5033699;28;8834;-74
2021/06/03 09:45:53;;;;;;;;;10.50;10.50;;;;;18.71;75.50;100804.25;5031549;28;8842;-76
2021/06/03 09:48:51;;;;;;;;;8.75;8.75;;;;;18.85;71.85;100810.81;5031375;28;8948;-75
2021/06/03 09:51:50;;;;;;;;;8.75;8.75;;;;;19.03;72.46;100808.22;5031494;28;8846;-76
2021/06/03 09:54:57;;;;;;;;;7.00;7.00;;;;;18.78;69.20;100807.13;5031167;28;8850;-75
2021/06/03 09:57:55;;;;;;;;;8.00;8.00;;;;;18.96;69.81;100812.94;5030344;28;8845;-75
2021/06/03 10:00:50;;;;;;;;;8.50;8.00;;;;;19.27;69.93;100808.81;5037668;28;9719;-76
2021/06/03 10:03:50;;;;;;;;;9.50;9.50;;;;;19.16;67.89;100820.72;5036448;28;9828;-76
2021/06/03 10:07:03;;;;;;;;;10.00;10.00;;;;;19.25;69.64;100814.84;5052057;28;8836;-75
2021/06/03 10:10:05;;;;;;;;;10.50;10.50;;;;;19.50;69.90;100819.84;5034625;28;8850;-74
2021/06/03 10:12:50;;;;;;;;;9.00;9.00;;;;;19.70;68.85;100822.00;5014193;28;8850;-75
2021/06/03 10:15:25;;;;;;;;;11.00;11.00;;;;;19.71;68.58;100822.84;5014435;28;8838;-75
2021/06/03 10:18:23;;;;;;;;;10.00;9.50;;;;;19.68;68.75;100830.03;5031045;28;8951;-75
2021/06/03 10:21:19;;;;;;;;;8.25;8.25;;;;;19.66;68.14;100832.41;5031231;28;8874;-75
2021/06/03 10:24:16;;;;;;;;;8.75;8.75;;;;;19.68;67.88;100832.03;5030912;28;8835;-75
2021/06/03 10:27:12;;;;;;;;;8.25;8.25;;;;;19.94;67.03;100831.03;5031320;28;8893;-75
2021/06/03 10:30:12;;;;;;;;;10.00;10.00;;;;;19.94;67.76;100836.63;5030877;28;8841;-75
2021/06/03 10:33:13;;;;;;;;;9.25;9.25;;;;;19.99;67.15;100839.84;5003727;28;8826;-77
2021/06/03 10:35:47;;;;;;;;;6.50;6.50;;;;;19.82;65.64;100848.16;4995097;28;9584;-76
2021/06/03 10:38:29;;;;;;;;;6.00;6.00;;;;;19.77;64.27;100851.31;5030994;28;8838;-76
2021/06/03 10:41:16;;;;;;;;;9.00;9.00;;;;;19.48;64.98;100845.47;5032524;28;8855;-76
2021/06/03 10:43:44;;;;;;;;;7.00;7.00;;;;;19.70;65.84;100843.66;5016729;28;8847;-75
2021/06/03 10:46:12;;;;;;;;;6.00;6.00;;;;;19.80;65.17;100850.56;5018278;28;9600;-75
2021/06/03 10:48:41;;;;;;;;;4.75;4.75;;;;;20.02;64.46;100857.94;5033860;28;9587;-75
2021/06/03 10:51:10;;;;;;;;;8.00;8.00;;;;;20.17;66.73;100850.41;5035391;28;8858;-76
2021/06/03 10:53:48;;;;;;;;;4.00;4.00;;;;;19.83;62.75;100858.19;5034315;28;8951;-75
2021/06/03 10:56:19;;;;;;;;;7.25;7.25;;;;;19.99;64.97;100862.31;5015211;28;8840;-76
2021/06/03 10:59:03;;;;;;;;;6.00;6.00;;;;;20.04;62.15;100861.16;5024066;28;8834;-76
2021/06/03 11:01:52;;;;;;;;;7.25;7.25;;;;;20.54;63.54;100865.03;5033963;28;8820;-77
2021/06/03 11:04:35;;;;;;;;;6.50;6.00;;;;;20.90;61.26;100865.19;5029805;28;8862;-76
2021/06/03 11:07:05;;;;;;;;;7.00;7.00;;;;;21.33;64.25;100868.13;5015576;28;8874;-76
2021/06/03 11:09:37;;;;;;;;;6.00;6.00;;;;;21.62;64.70;100878.19;5013354;28;8820;-73
2021/06/03 11:12:22;;;;;;;;;9.00;9.00;;;;;21.40;62.37;100876.56;5015928;28;8906;-74
2021/06/03 11:15:14;;;;;;;;;4.75;4.75;;;;;21.38;62.48;100874.13;5032621;28;8900;-75
2021/06/03 11:18:02;;;;;;;;;7.75;7.75;;;;;21.29;61.31;100882.16;5030396;28;8884;-75
2021/06/03 11:20:58;;;;;;;;;9.00;9.00;;;;;21.21;63.21;100882.53;5032956;28;8823;-74
2021/06/03 11:23:38;;;;;;;;;9.50;9.50;;;;;21.16;61.89;100885.72;5033084;28;8842;-75
2021/06/03 11:26:58;;;;;;;;;9.50;9.50;;;;;20.95;64.21;100884.47;5031254;28;8842;-74
2021/06/03 11:29:55;;;;;;;;;6.00;6.00;;;;;20.90;63.99;100886.88;5023583;28;8933;-74
2021/06/03 11:32:52;;;;;;;;;6.50;6.50;;;;;20.63;62.75;100897.63;5031735;28;8839;-75
2021/06/03 11:35:41;;;;;;;;;8.25;8.25;;;;;20.48;63.63;100896.75;5030444;28;8852;-74
2021/06/03 11:38:10;;;;;;;;;6.50;6.50;;;;;20.25;62.47;100906.22;5030368;28;9647;-74
2021/06/03 11:41:31;;;;;;;;;8.00;8.00;;;;;20.17;66.56;100898.13;5031799;28;8820;-74
2021/06/03 11:44:19;;;;;;;;;7.25;7.25;;;;;20.27;64.78;100912.22;5031256;28;8853;-74
2021/06/03 11:46:49;;;;;;;;;9.00;9.00;;;;;20.40;65.41;100912.72;5029927;28;8842;-74
2021/06/03 11:49:40;;;;;;;;;9.25;9.25;;;;;20.47;66.43;100909.97;5014511;28;8855;-75
2021/06/03 11:52:07;;;;;;;;;13.75;13.75;;;;;20.47;66.15;100909.16;5034813;28;8921;-74
2021/06/03 11:54:57;;;;;;;;;11.75;11.75;;;;;20.56;66.17;100920.06;5032644;28;8867;-74
2021/06/03 11:57:35;;;;;;;;;14.75;14.75;;;;;20.52;66.30;100920.03;5032183;28;8847;-72
2021/06/03 12:00:12;;;;;;;;;23.00;21.25;;;;;20.61;66.71;100926.09;5032246;28;8910;-73
2021/06/03 12:02:47;;;;;;;;;23.00;23.00;;;;;20.64;65.69;100927.31;5032207;28;8865;-73
2021/06/03 12:05:17;;;;;;;;;20.25;20.25;;;;;20.74;65.00;100927.38;5032273;28;8834;-73
2021/06/03 12:08:40;;;;;;;;;24.25;22.25;;;;;20.83;64.65;100925.00;5045541;28;8933;-75
2021/06/03 12:11:20;;;;;;;;;38.25;33.50;;;;;20.82;63.98;100928.19;5053564;28;8851;-73
2021/06/03 12:14:24;;;;;;;;;32.00;31.00;;;;;21.09;64.53;100921.09;5053518;28;9553;-74
2021/06/03 12:17:07;;;;;;;;;19.00;19.00;;;;;21.29;65.92;100921.53;5034690;28;8860;-74
2021/06/03 12:20:03;;;;;;;;;17.00;17.00;;;;;21.48;64.67;100916.78;5047247;28;8870;-75
2021/06/03 12:23:05;;;;;;;;;9.50;9.50;;;;;21.42;64.33;100926.81;5051636;28;8922;-76
2021/06/03 12:26:01;;;;;;;;;2.25;2.25;;;;;21.33;63.47;100925.19;5037658;28;8843;-76
2021/06/03 12:28:56;;;;;;;;;9.00;9.00;;;;;21.34;63.88;100923.97;5052434;28;8854;-76
2021/06/03 12:31:52;;;;;;;;;6.50;6.50;;;;;21.35;63.63;100919.16;5038904;28;8851;-76
2021/06/03 12:34:23;;;;;;;;;8.00;8.00;;;;;21.35;64.20;100916.34;5053481;28;8864;-77
2021/06/03 12:37:28;;;;;;;;;7.80;7.80;;;;;21.34;63.29;100920.38;5053052;28;8887;-75
2021/06/03 12:39:58;;;;;;;;;7.75;7.75;;;;;21.63;63.74;100926.84;5053459;28;8862;-76
2021/06/03 12:42:45;;;;;;;;;7.60;7.60;;;;;22.07;64.02;100926.41;5052175;28;8883;-77
2021/06/03 12:45:42;;;;;;;;;5.20;5.20;;;;;22.24;61.10;100927.66;5052309;28;8828;-75
2021/06/03 12:48:13;;;;;;;;;5.60;5.60;;;;;22.66;61.07;100923.91;5035456;28;8876;-76
2021/06/03 12:51:12;;;;;;;;;6.60;6.60;;;;;23.27;59.35;100923.66;5051997;28;9029;-76
2021/06/03 12:54:08;;;;;;;;;4.80;4.80;;;;;23.24;56.28;100930.13;5051456;28;8852;-77
2021/06/03 12:57:09;;;;;;;;;2.40;2.40;;;;;22.92;56.62;100933.88;5051107;28;9543;-74
2021/06/03 13:00:16;;;;;;;;;4.60;4.60;;;;;22.45;59.24;100946.50;5060722;28;8952;-74
2021/06/03 13:03:13;;;;;;;;;3.80;3.80;;;;;22.66;59.15;100938.00;5033562;28;8865;-75
2021/06/03 13:05:47;;;;;;;;;3.20;3.20;;;;;23.10;59.91;100939.47;5032964;28;8842;-76
2021/06/03 13:08:53;;;;;;;;;3.20;3.20;;;;;23.43;58.66;100940.09;5033217;28;9607;-76
2021/06/03 13:11:49;;;;;;;;;4.40;4.40;;;;;22.77;58.64;100932.31;5031660;28;8849;-76
2021/06/03 13:14:19;;;;;;;;;3.40;3.40;;;;;22.98;59.36;100934.28;5043137;28;8918;-75
2021/06/03 13:17:12;;;;;;;;;2.00;2.00;;;;;22.68;59.47;100931.94;5018281;28;8919;-75
2021/06/03 13:20:19;;;;;;;;;4.40;4.40;;;;;22.34;59.11;100937.28;5033066;28;9616;-75
2021/06/03 13:22:55;;;;;;;;;2.40;2.40;;;;;22.22;60.93;100932.06;5053476;28;8848;-74
2021/06/03 13:25:28;;;;;;;;;4.80;4.80;;;;;22.20;61.22;100930.47;5053411;28;8826;-75
2021/06/03 13:27:56;;;;;;;;;5.80;5.80;;;;;22.12;61.69;100939.31;5053518;28;8864;-75
2021/06/03 13:30:32;;;;;;;;;5.40;5.40;;;;;22.19;62.57;100942.13;5053037;28;8832;-75
2021/06/03 13:33:21;;;;;;;;;2.00;2.00;;;;;22.02;60.99;100940.13;5052823;28;8859;-75
2021/06/03 13:36:07;;;;;;;;;5.40;5.40;;;;;22.12;61.01;100936.50;5034548;28;8876;-75
2021/06/03 13:38:43;;;;;;;;;2.40;2.40;;;;;22.50;61.52;100934.03;5052404;28;8837;-75
2021/06/03 13:41:13;;;;;;;;;3.60;3.60;;;;;22.59;60.01;100943.66;5035026;28;8926;-75
2021/06/03 13:43:45;;;;;;;;;2.80;2.80;;;;;22.55;59.80;100939.25;5052324;28;8949;-75
2021/06/03 13:46:14;;;;;;;;;2.40;2.40;;;;;22.76;59.42;100942.78;5034968;28;8851;-75
2021/06/03 13:48:46;;;;;;;;;2.20;2.20;;;;;23.15;58.44;100952.31;5034810;28;8844;-75
2021/06/03 13:51:20;;;;;;;;;2.20;2.20;;;;;23.71;57.50;100947.59;5035116;28;9545;-77
2021/06/03 13:53:50;;;;;;;;;2.00;2.00;;;;;23.56;57.33;100958.94;5052269;28;8836;-74
2021/06/03 13:56:25;;;;;;;;;3.60;3.60;;;;;23.93;57.04;100951.06;5034903;28;8912;-75
2021/06/03 13:59:00;;;;;;;;;2.60;2.60;;;;;23.44;55.79;100953.78;5035559;28;8865;-74
2021/06/03 14:01:50;;;;;;;;;1.00;1.00;;;;;23.34;57.07;100956.66;5052035;28;8933;-75
2021/06/03 14:04:23;;;;;;;;;3.00;3.00;;;;;22.99;58.07;100952.81;5034467;28;8849;-75
2021/06/03 14:06:55;;;;;;;;;1.60;1.60;;;;;22.65;58.70;100950.50;5052273;28;8813;-76
2021/06/03 14:09:28;;;;;;;;;2.00;2.00;;;;;22.22;58.54;100957.41;5052333;28;8856;-75
2021/06/03 14:12:19;;;;;;;;;0.80;0.80;;;;;21.96;60.37;100961.44;5055393;28;8837;-76
2021/06/03 14:15:02;;;;;;;;;1.00;1.00;;;;;21.59;61.05;100962.59;5056253;28;9081;-75
2021/06/03 14:17:34;;;;;;;;;4.20;4.20;;;;;21.75;61.95;100959.41;5037494;28;8857;-75
2021/06/03 14:20:22;;;;;;;;;1.00;1.00;;;;;21.68;63.41;100979.91;5055950;28;8893;-75
2021/06/03 14:22:50;;;;;;;;;2.00;2.00;;;;;21.25;67.01;100976.97;5037981;28;8830;-75
2021/06/03 14:25:21;;;;;;;;;4.00;4.00;;;;;21.24;67.82;100981.00;5055867;28;8838;-75
2021/06/03 14:27:53;;;;;;;;;2.75;2.75;;;;;21.00;68.38;100982.47;5037926;28;8833;-74
2021/06/03 14:30:27;;;;;;;;;2.75;2.75;;;;;21.07;68.74;100987.34;5055916;28;8864;-75
2021/06/03 14:33:01;;;;;;;;;2.75;2.75;;;;;20.98;68.74;100986.91;5055022;28;9685;-74
2021/06/03 14:36:01;;;;;;;;;2.25;2.25;;;;;20.81;69.47;100982.81;5040850;28;8844;-74
2021/06/03 14:38:56;;;;;;;;;1.00;1.00;;;;;20.64;69.75;100992.75;5051322;28;8832;-74
2021/06/03 14:41:52;;;;;;;;;1.50;1.50;;;;;20.40;70.66;100996.19;5049986;28;8876;-75
2021/06/03 14:44:55;;;;;;;;;2.00;2.00;;;;;20.44;70.12;100997.84;5074676;28;8955;-75
2021/06/03 14:47:37;;;;;;;;;2.00;2.00;;;;;20.12;70.78;100994.75;5075026;28;9571;-75
2021/06/03 14:50:08;;;;;;;;;1.25;1.25;;;;;20.08;71.28;101007.13;5074682;28;8838;-75
2021/06/03 14:52:38;;;;;;;;;2.00;2.00;;;;;20.23;71.41;101009.69;5075715;28;8854;-75
2021/06/03 14:55:09;;;;;;;;;3.25;3.25;;;;;20.45;70.88;101016.28;5057529;28;8859;-76
2021/06/03 14:57:40;;;;;;;;;1.25;1.25;;;;;19.79;71.16;101020.13;5075315;28;8983;-75
2021/06/03 15:00:13;;;;;;;;;0.00;0.00;;;;;19.75;71.86;101011.66;5075658;28;8863;-76
2021/06/03 15:02:42;;;;;;;;;1.75;1.75;;;;;19.46;72.40;101021.72;5075602;28;8870;-75
2021/06/03 15:05:12;;;;;;;;;1.00;1.00;;;;;19.43;72.63;101023.31;5075336;28;9614;-75
2021/06/03 15:07:44;;;;;;;;;1.00;1.00;;;;;19.15;74.15;101039.78;5075306;28;8942;-75
2021/06/03 15:10:15;;;;;;;;;1.00;1.00;;;;;19.11;74.45;101039.75;5075525;28;8857;-75
2021/06/03 15:12:44;;;;;;;;;3.25;3.25;;;;;19.28;74.43;101055.19;5075284;28;8899;-74
2021/06/03 15:15:17;;;;;;;;;1.75;1.75;;;;;18.82;74.62;101043.34;5075103;28;9630;-76
2021/06/03 15:17:46;;;;;;;;;0.00;0.00;;;;;18.94;75.03;101061.91;5057164;28;8916;-75
2021/06/03 15:20:18;;;;;;;;;1.00;1.00;;;;;19.19;74.85;101067.88;5074830;28;8829;-74
2021/06/03 15:22:47;;;;;;;;;2.00;2.00;;;;;19.00;74.35;101072.44;5074013;28;8852;-74
2021/06/03 15:25:18;;;;;;;;;1.75;1.75;;;;;18.75;74.39;101062.84;5074971;28;8873;-74
2021/06/03 15:27:46;;;;;;;;;3.00;3.00;;;;;18.68;74.71;101077.56;5074832;28;8849;-75
2021/06/03 15:30:17;;;;;;;;;1.50;1.50;;;;;18.67;74.34;101080.75;5074828;28;8854;-74
2021/06/03 15:32:49;;;;;;;;;1.50;1.50;;;;;18.66;75.13;101085.53;5067386;28;8867;-75
2021/06/03 15:35:19;;;;;;;;;1.50;1.50;;;;;18.67;75.29;101091.97;5055332;28;8863;-74
2021/06/03 15:37:48;;;;;;;;;1.00;1.00;;;;;18.32;75.70;101090.13;5053340;28;8833;-74
2021/06/03 15:40:18;;;;;;;;;1.00;1.00;;;;;18.55;75.47;101099.31;5050757;28;8833;-74
2021/06/03 15:43:06;;;;;;;;;2.00;2.00;;;;;18.57;74.87;101094.19;5052047;28;8830;-74
2021/06/03 15:46:03;;;;;;;;;2.00;2.00;;;;;18.17;75.90;101096.66;5052021;28;9705;-75
2021/06/03 15:48:59;;;;;;;;;2.00;2.00;;;;;18.12;76.90;101113.78;5051151;28;8829;-75
2021/06/03 15:51:55;;;;;;;;;1.00;1.00;;;;;18.27;76.56;101121.28;5053370;28;8825;-74
2021/06/03 15:54:52;;;;;;;;;3.00;3.00;;;;;17.90;77.15;101107.78;5054137;28;8923;-75
2021/06/03 15:57:49;;;;;;;;;1.75;1.75;;;;;17.93;76.92;101115.44;5053092;28;8857;-75
2021/06/03 16:00:46;;;;;;;;;2.50;2.50;;;;;18.06;76.80;101114.09;5053374;28;8842;-74
2021/06/03 16:03:43;;;;;;;;;2.75;2.75;;;;;17.90;77.06;101113.38;5038401;28;8885;-74
2021/06/03 16:06:38;;;;;;;;;2.00;2.00;;;;;17.99;76.73;101119.56;5048720;28;8849;-74
2021/06/03 16:09:34;;;;;;;;;2.50;2.50;;;;;17.76;77.32;101116.72;5050936;28;8919;-74
2021/06/03 16:12:30;;;;;;;;;4.00;3.00;;;;;17.82;77.18;101122.81;5051346;28;8836;-74
2021/06/03 16:15:19;;;;;;;;;3.00;3.00;;;;;17.79;77.16;101123.56;5054829;28;8886;-76
2021/06/03 16:18:14;;;;;;;;;3.00;3.00;;;;;17.74;77.41;101126.66;5050334;28;8851;-75
2021/06/03 16:21:11;;;;;;;;;2.00;2.00;;;;;17.89;77.81;101131.34;5051621;28;8843;-75
2021/06/03 16:23:40;;;;;;;;;3.50;3.50;;;;;17.93;77.79;101125.81;5049590;28;8857;-74
2021/06/03 16:26:37;;;;;;;;;3.00;3.00;;;;;17.89;77.20;101130.56;5070326;28;8867;-76
2021/06/03 16:29:32;;;;;;;;;3.25;3.25;;;;;18.01;76.88;101128.38;5067888;28;8835;-75
2021/06/03 16:32:28;;;;;;;;;3.50;3.50;;;;;18.02;76.60;101130.03;5041514;28;8837;-75
2021/06/03 16:34:55;;;;;;;;;3.50;3.50;;;;;17.83;77.19;101129.22;5056764;28;8860;-74
2021/06/03 16:37:57;;;;;;;;;4.25;4.25;;;;;17.62;77.90;101138.75;5051331;28;8831;-75
2021/06/03 16:40:29;;;;;;;;;3.75;3.75;;;;;17.65;77.11;101146.44;5052898;28;9030;-75
2021/06/03 16:43:21;;;;;;;;;4.00;4.00;;;;;17.67;77.48;101144.06;5041457;28;8844;-75
2021/06/03 16:45:59;;;;;;;;;4.75;4.75;;;;;17.49;77.82;101151.28;5054576;28;8879;-76
2021/06/03 16:48:28;;;;;;;;;3.00;3.00;;;;;17.38;77.70;101145.44;5051017;28;8958;-75
2021/06/03 16:50:58;;;;;;;;;5.00;5.00;;;;;17.35;77.99;101139.78;5050738;28;8840;-75
2021/06/03 16:53:27;;;;;;;;;4.00;4.00;;;;;17.48;78.15;101153.28;5051699;28;8967;-74
2021/06/03 16:56:00;;;;;;;;;4.00;4.00;;;;;17.41;78.53;101141.94;5051566;28;8926;-74
2021/06/03 16:58:30;;;;;;;;;4.25;4.25;;;;;17.44;78.40;101143.19;5051421;28;8861;-74
2021/06/03 17:01:01;;;;;;;;;4.00;4.00;;;;;17.38;78.74;101139.84;5051395;28;8826;-75
2021/06/03 17:03:59;;;;;;;;;3.75;3.75;;;;;17.49;78.72;101149.31;5049168;28;8835;-75
2021/06/03 17:06:54;;;;;;;;;3.75;3.75;;;;;17.28;79.25;101156.41;5050594;28;8854;-75
2021/06/03 17:09:50;;;;;;;;;4.00;4.00;;;;;17.27;78.50;101152.81;5012171;28;8867;-76
2021/06/03 17:12:27;;;;;;;;;4.75;4.75;;;;;17.39;78.44;101151.84;5013146;28;8966;-74
2021/06/03 17:15:24;;;;;;;;;6.75;6.75;;;;;17.20;78.97;101149.84;5035644;28;8945;-74
2021/06/03 17:18:20;;;;;;;;;7.75;7.50;;;;;17.36;78.68;101142.22;5051575;28;8840;-75
2021/06/03 17:21:16;;;;;;;;;7.25;7.25;;;;;17.31;78.85;101148.09;5018710;28;8818;-76
2021/06/03 17:24:12;;;;;;;;;4.25;4.25;;;;;17.38;78.57;101144.63;5031714;28;8867;-76
2021/06/03 17:27:08;;;;;;;;;6.00;6.00;;;;;17.07;78.64;101149.16;5031359;28;8867;-76
2021/06/03 17:30:12;;;;;;;;;6.25;6.25;;;;;16.97;79.61;101157.28;5031996;28;8840;-76
2021/06/03 17:32:41;;;;;;;;;9.00;8.75;;;;;17.12;79.53;101154.47;5032862;28;8838;-76
2021/06/03 17:35:38;;;;;;;;;5.00;5.00;;;;;17.00;79.51;101153.75;5018324;28;8866;-75
2021/06/03 17:38:34;;;;;;;;;5.25;5.25;;;;;17.27;79.29;101155.59;5018436;28;8862;-75
2021/06/03 17:41:34;;;;;;;;;7.25;7.25;;;;;16.98;78.93;101170.09;5018327;28;8846;-75
2021/06/03 17:44:30;;;;;;;;;6.75;6.75;;;;;16.92;79.13;101166.75;5031422;28;9720;-75
2021/06/03 17:46:58;;;;;;;;;6.00;6.00;;;;;17.01;79.39;101150.59;5035613;28;8846;-75
2021/06/03 17:49:53;;;;;;;;;5.25;5.00;;;;;16.91;79.41;101171.53;5035636;28;9576;-75
2021/06/03 17:52:35;;;;;;;;;5.00;5.00;;;;;16.94;79.43;101170.81;5035590;28;8943;-74
2021/06/03 17:55:33;;;;;;;;;8.00;8.00;;;;;16.95;79.24;101178.03;5035315;28;8874;-74
2021/06/03 17:58:06;;;;;;;;;6.25;6.25;;;;;16.81;79.48;101176.88;5036296;28;8857;-74
2021/06/03 18:01:02;;;;;;;;;5.50;5.50;;;;;16.78;79.73;101183.16;5035337;28;8862;-74
2021/06/03 18:03:58;;;;;;;;;4.00;4.00;;;;;16.80;79.95;101184.44;5016218;28;8872;-75
2021/06/03 18:06:55;;;;;;;;;7.25;7.25;;;;;16.79;80.30;101185.63;5019994;28;8968;-74
2021/06/03 18:09:51;;;;;;;;;5.75;5.75;;;;;16.88;80.23;101183.44;5043358;28;8940;-74
2021/06/03 18:12:47;;;;;;;;;6.00;6.00;;;;;16.80;80.00;101184.44;5055395;28;8837;-74
2021/06/03 18:15:46;;;;;;;;;5.50;5.50;;;;;16.78;80.39;101197.94;5054997;28;8841;-74
2021/06/03 18:18:42;;;;;;;;;5.75;5.75;;;;;16.73;80.41;101200.19;5054974;28;8952;-75
2021/06/03 18:21:38;;;;;;;;;6.25;6.25;;;;;16.73;80.45;101197.41;5054844;28;8906;-74
2021/06/03 18:24:34;;;;;;;;;6.75;6.75;;;;;16.72;80.35;101201.38;5055178;28;8836;-74
2021/06/03 18:27:30;;;;;;;;;7.25;7.25;;;;;16.67;80.44;101206.00;5040835;28;8813;-74
2021/06/03 18:30:28;;;;;;;;;4.75;4.75;;;;;16.79;80.33;101207.97;5052311;28;9532;-74
2021/06/03 18:33:24;;;;;;;;;5.75;5.75;;;;;16.67;80.23;101210.78;5053227;28;8837;-74
2021/06/03 18:36:21;;;;;;;;;5.75;5.75;;;;;16.72;80.65;101218.13;5054858;28;8834;-74
2021/06/03 18:39:17;;;;;;;;;6.50;6.50;;;;;16.85;80.31;101223.25;5042785;28;8907;-75
2021/06/03 18:42:13;;;;;;;;;7.75;7.75;;;;;16.72;80.55;101223.72;5053866;28;8829;-74
2021/06/03 18:45:13;;;;;;;;;7.50;7.00;;;;;16.56;80.51;101215.28;5041107;28;8936;-74
2021/06/03 18:48:10;;;;;;;;;2.25;2.25;;;;;16.65;80.71;101215.94;5054463;28;8999;-74
2021/06/03 18:50:41;;;;;;;;;3.25;3.25;;;;;16.38;80.82;101220.38;5055584;28;8814;-75
2021/06/03 18:53:18;;;;;;;;;8.75;8.75;;;;;16.54;81.06;101215.63;5055636;28;8850;-74
2021/06/03 18:56:15;;;;;;;;;7.50;7.50;;;;;16.60;80.78;101218.97;5051891;28;8841;-75
2021/06/03 18:59:12;;;;;;;;;6.00;6.00;;;;;16.57;81.08;101216.91;5037307;28;8955;-75
2021/06/03 19:02:09;;;;;;;;;8.50;7.50;;;;;16.33;81.35;101227.06;5052819;28;8858;-77
2021/06/03 19:05:06;;;;;;;;;8.00;8.00;;;;;16.39;82.18;101220.03;5053179;28;8833;-75
2021/06/03 19:07:34;;;;;;;;;6.75;6.75;;;;;16.16;81.96;101216.19;5053014;28;8850;-75
2021/06/03 19:10:31;;;;;;;;;5.75;5.75;;;;;16.27;82.28;101217.31;5053782;28;8930;-74
2021/06/03 19:13:03;;;;;;;;;7.25;7.25;;;;;16.51;81.76;101223.94;5053877;28;8829;-75
2021/06/03 19:15:33;;;;;;;;;7.00;7.00;;;;;16.45;81.49;101226.16;5052723;28;9609;-75
2021/06/03 19:18:03;;;;;;;;;7.00;7.00;;;;;16.62;81.85;101222.22;5053926;28;8920;-75
2021/06/03 19:20:59;;;;;;;;;7.00;7.00;;;;;16.69;81.81;101233.59;5039099;28;8821;-75
2021/06/03 19:23:54;;;;;;;;;7.00;7.00;;;;;16.66;81.36;101232.31;5052355;28;8837;-75
2021/06/03 19:26:50;;;;;;;;;8.00;8.00;;;;;16.36;81.13;101228.31;5051712;28;8926;-75
2021/06/03 19:29:46;;;;;;;;;6.75;6.75;;;;;16.42;81.27;101231.66;5051089;28;9539;-75
2021/06/03 19:32:43;;;;;;;;;11.25;10.75;;;;;16.49;81.44;101231.88;5038574;28;9586;-75
2021/06/03 19:35:43;;;;;;;;;9.00;9.00;;;;;16.45;81.38;101230.94;5039588;28;8848;-75
2021/06/03 19:38:39;;;;;;;;;9.75;8.00;;;;;16.62;81.55;101227.81;5052375;28;8895;-75
2021/06/03 19:41:36;;;;;;;;;8.25;8.25;;;;;16.36;81.11;101231.13;5051355;28;9448;-75
2021/06/03 19:44:31;;;;;;;;;9.00;9.00;;;;;16.32;81.52;101228.19;5052546;28;8828;-75
2021/06/03 19:47:28;;;;;;;;;7.25;7.25;;;;;16.35;81.45;101227.50;5053283;28;8897;-75
2021/06/03 19:50:35;;;;;;;;;8.75;8.75;;;;;16.13;82.32;101225.28;5040028;28;8844;-75
2021/06/03 19:53:30;;;;;;;;;11.25;10.25;;;;;16.52;81.38;101231.13;5054447;28;8824;-76
2021/06/03 19:56:26;;;;;;;;;11.00;10.25;;;;;16.51;81.55;101232.31;5053735;28;8866;-76
2021/06/03 19:59:22;;;;;;;;;8.50;8.50;;;;;16.21;82.40;101229.09;5053060;28;9632;-75
2021/06/03 20:02:18;;;;;;;;;7.75;7.75;;;;;16.30;82.86;101230.56;5053779;28;8973;-76
2021/06/03 20:05:15;;;;;;;;;6.75;6.75;;;;;16.45;82.00;101228.16;5054579;28;8954;-75
2021/06/03 20:08:11;;;;;;;;;6.25;6.25;;;;;16.42;81.42;101238.06;5062121;28;8837;-76
2021/06/03 20:11:07;;;;;;;;;8.75;8.25;;;;;16.40;81.57;101232.81;5072984;28;8810;-76
2021/06/03 20:13:58;;;;;;;;;11.75;11.75;;;;;16.25;82.15;101241.16;5074051;28;8948;-76
2021/06/03 20:16:53;;;;;;;;;11.00;11.00;;;;;16.29;81.51;101228.94;5072844;28;8833;-76
2021/06/03 20:19:49;;;;;;;;;9.00;9.00;;;;;16.32;81.53;101232.97;5072817;28;8849;-76
2021/06/03 20:22:31;;;;;;;;;11.50;11.25;;;;;16.22;81.90;101225.94;5073976;28;8861;-76
2021/06/03 20:25:29;;;;;;;;;9.25;9.25;;;;;16.37;81.75;101233.53;5072653;28;9749;-76
2021/06/03 20:28:25;;;;;;;;;9.75;9.75;;;;;16.41;81.16;101239.22;5063494;28;8820;-76
2021/06/03 20:31:21;;;;;;;;;10.00;10.00;;;;;16.20;81.97;101228.28;5052664;28;8854;-76
2021/06/03 20:34:16;;;;;;;;;10.50;10.50;;;;;15.95;83.28;101229.53;5053513;28;8828;-76
2021/06/03 20:37:12;;;;;;;;;9.50;9.50;;;;;16.02;82.75;101221.38;5053267;28;8852;-75
2021/06/03 20:40:11;;;;;;;;;10.00;10.00;;;;;16.24;82.27;101220.81;5064001;28;8848;-75
2021/06/03 20:43:06;;;;;;;;;11.50;10.00;;;;;16.13;82.06;101217.72;5064113;28;8898;-75
2021/06/03 20:46:03;;;;;;;;;7.50;7.50;;;;;16.05;82.75;101223.47;5052296;28;8866;-75
2021/06/03 20:48:59;;;;;;;;;10.25;10.25;;;;;16.06;83.15;101220.31;5052297;28;8824;-76